Time;durP1;ratioP1;P1;durP2;ratioP2;P2;SDS_P1;SDS_P2;PMS_P1;PMS_P2;Temp;Humidity;BMP_temperature;BMP_pressure;BME280_temperature;BME280_humidity;BME280_pressure;Samples;Min_cycle;Max_cycle;Signal;HPM_P1;HPM_P2
2021/12/08 00:00:28;;;;;;;;;;;;;;;;;;5138231;27;20032;-88
2021/12/08 00:02:55;;;;;;;;;;;;;;;;;;5138258;27;19997;-87
2021/12/08 00:05:22;;;;;;;;;;;;;;;;;;5138057;27;20050;-87
2021/12/08 00:07:49;;;;;;;;;;;;;;;;;;5138044;27;20015;-87
2021/12/08 00:10:29;;;;;;;;;;;;;;;;;;5138197;27;20391;-87
2021/12/08 00:13:03;;;;;;;;;;;;;;;;;;5137891;27;19991;-89
2021/12/08 00:15:30;;;;;;;;;;;;;;;;;;5137954;27;20009;-86
2021/12/08 00:17:57;;;;;;;;;;;;;;;;;;5138815;27;20063;-86
2021/12/08 00:20:26;;;;;;;;;;;;;;;;;;5143363;27;20053;-85
2021/12/08 00:22:53;;;;;;;;;;;;;;;;;;5149586;27;19952;-88
2021/12/08 00:25:20;;;;;;;;;;;;;;;;;;5138418;27;20002;-89
2021/12/08 00:27:47;;;;;;;;;;;;;;;;;;5140038;27;20070;-86
2021/12/08 00:30:15;;;;;;;;;;;;;;;;;;5138360;27;20025;-87
2021/12/08 00:32:42;;;;;;;;;;;;;;;;;;5137908;27;19952;-86
2021/12/08 00:35:09;;;;;;;;;;;;;;;;;;5137450;27;19958;-85
2021/12/08 00:37:36;;;;;;;;;;;;;;;;;;5137240;27;20350;-85
2021/12/08 00:40:03;;;;;;;;;;;;;;;;;;5137047;27;20017;-84
2021/12/08 00:42:30;;;;;;;;;;;;;;;;;;5137410;27;20038;-88
2021/12/08 00:44:59;;;;;;;;;;;;;;;;;;5137560;27;20016;-89
2021/12/08 00:47:26;;;;;;;;;;;;;;;;;;5137238;27;19953;-85
2021/12/08 00:49:53;;;;;;;;;;;;;;;;;;5137554;27;20038;-92
2021/12/08 00:52:20;;;;;;;;;;;;;;;;;;5137992;27;20006;-88
2021/12/08 00:54:47;;;;;;;;;;;;;;;;;;5137967;27;19960;-86
2021/12/08 00:57:14;;;;;;;;;;;;;;;;;;5137373;27;20077;-86
2021/12/08 00:59:41;;;;;;;;;;;;;;;;;;5137140;27;19949;-85
2021/12/08 01:02:08;;;;;;;;;;;;;;;;;;5136344;27;19987;-85
2021/12/08 01:04:35;;;;;;;;;;;;;;;;;;5136808;27;20050;-86
2021/12/08 01:07:02;;;;;;;;;;;;;;;;;;5136620;27;20483;-83
2021/12/08 01:09:29;;;;;;;;;;;;;;;;;;5137633;27;20019;-85
2021/12/08 01:11:57;;;;;;;;;;;;;;;;;;5137662;27;20045;-85
2021/12/08 01:14:24;;;;;;;;;;;;;;;;;;5136564;27;20007;-84
2021/12/08 01:16:52;;;;;;;;;;;;;;;;;;5136403;27;20380;-85
2021/12/08 01:19:19;;;;;;;;;;;;;;;;;;5136416;27;19958;-85
2021/12/08 01:21:46;;;;;;;;;;;;;;;;;;5136414;27;20040;-85
2021/12/08 01:24:13;;;;;;;;;;;;;;;;;;5136548;27;20033;-85
2021/12/08 01:26:40;;;;;;;;;;;;;;;;;;5136914;27;20046;-85
2021/12/08 01:29:07;;;;;;;;;;;;;;;;;;5136362;27;19997;-85
2021/12/08 01:31:36;;;;;;;;;;;;;;;;;;5136304;27;20004;-85
2021/12/08 01:34:03;;;;;;;;;;;;;;;;;;5136127;27;19958;-85
2021/12/08 01:36:30;;;;;;;;;;;;;;;;;;5136017;27;20397;-85
2021/12/08 01:38:57;;;;;;;;;;;;;;;;;;5135925;27;19979;-85
2021/12/08 01:41:25;;;;;;;;;;;;;;;;;;5136120;27;20053;-85
2021/12/08 01:46:32;;;;;;;;;;;;;;;;;;5101628;27;20329;-85
2021/12/08 01:48:59;;;;;;;;;;;;;;;;;;5136057;27;20033;-85
2021/12/08 01:51:26;;;;;;;;;;;;;;;;;;5135741;27;20475;-86
2021/12/08 01:53:53;;;;;;;;;;;;;;;;;;5136014;27;20043;-86
2021/12/08 01:56:20;;;;;;;;;;;;;;;;;;5135597;27;20039;-86
2021/12/08 01:58:47;;;;;;;;;;;;;;;;;;5135532;27;20046;-85
2021/12/08 02:01:14;;;;;;;;;;;;;;;;;;5135764;27;20042;-86
2021/12/08 02:03:41;;;;;;;;;;;;;;;;;;5135504;27;20046;-86
2021/12/08 02:06:08;;;;;;;;;;;;;;;;;;5136348;27;20040;-85
2021/12/08 02:08:35;;;;;;;;;;;;;;;;;;5136389;27;20044;-85
2021/12/08 02:11:03;;;;;;;;;;;;;;;;;;5137299;27;20365;-85
2021/12/08 02:13:35;;;;;;;;;;;;;;;;;;5136198;27;19957;-86
2021/12/08 02:16:02;;;;;;;;;;;;;;;;;;5135582;27;19946;-85
2021/12/08 02:18:29;;;;;;;;;;;;;;;;;;5135177;27;20401;-86
2021/12/08 02:20:56;;;;;;;;;;;;;;;;;;5135408;27;20042;-85
2021/12/08 02:23:23;;;;;;;;;;;;;;;;;;5135128;27;20054;-85
2021/12/08 02:25:50;;;;;;;;;;;;;;;;;;5135201;27;19996;-85
2021/12/08 02:28:18;;;;;;;;;;;;;;;;;;5135084;27;20048;-86
2021/12/08 02:30:49;;;;;;;;;;;;;;;;;;5134983;27;19960;-84
2021/12/08 02:47:09;;;;;;;;;;;;;;;;;;5134999;27;19939;-85
2021/12/08 02:49:36;;;;;;;;;;;;;;;;;;5135289;27;19955;-85
2021/12/08 02:52:03;;;;;;;;;;;;;;;;;;5134861;27;20403;-86
2021/12/08 02:54:30;;;;;;;;;;;;;;;;;;5135006;27;20031;-85
2021/12/08 02:56:57;;;;;;;;;;;;;;;;;;5134662;27;20044;-85
2021/12/08 02:59:24;;;;;;;;;;;;;;;;;;5134555;27;20054;-84
2021/12/08 03:01:51;;;;;;;;;;;;;;;;;;5135505;27;20049;-85
2021/12/08 03:04:18;;;;;;;;;;;;;;;;;;5134698;27;20417;-85
2021/12/08 03:06:45;;;;;;;;;;;;;;;;;;5134658;27;19976;-85
2021/12/08 03:09:12;;;;;;;;;;;;;;;;;;5134611;27;20006;-84
2021/12/08 03:11:39;;;;;;;;;;;;;;;;;;5134844;27;20051;-87
2021/12/08 03:14:06;;;;;;;;;;;;;;;;;;5134447;27;20376;-86
2021/12/08 03:16:33;;;;;;;;;;;;;;;;;;5134692;27;20051;-86
2021/12/08 03:19:00;;;;;;;;;;;;;;;;;;5134301;27;20530;-85
2021/12/08 03:21:31;;;;;;;;;;;;;;;;;;5134437;27;19956;-85
2021/12/08 03:24:09;;;;;;;;;;;;;;;;;;5134434;27;20019;-85
2021/12/08 03:26:44;;;;;;;;;;;;;;;;;;5136860;27;20387;-85
2021/12/08 03:29:21;;;;;;;;;;;;;;;;;;5138778;27;19949;-85
2021/12/08 03:31:51;;;;;;;;;;;;;;;;;;5138761;27;19950;-85
2021/12/08 03:34:20;;;;;;;;;;;;;;;;;;5138473;27;20049;-85
2021/12/08 03:36:47;;;;;;;;;;;;;;;;;;5138490;27;19959;-86
2021/12/08 03:39:14;;;;;;;;;;;;;;;;;;5138442;27;19994;-86
2021/12/08 03:41:41;;;;;;;;;;;;;;;;;;5138487;27;20006;-85
2021/12/08 03:44:08;;;;;;;;;;;;;;;;;;5138342;27;20449;-85
2021/12/08 03:46:39;;;;;;;;;;;;;;;;;;5138426;27;19961;-85
2021/12/08 03:49:09;;;;;;;;;;;;;;;;;;5138355;27;19963;-85
2021/12/08 03:51:36;;;;;;;;;;;;;;;;;;5139011;27;20022;-86
2021/12/08 03:54:03;;;;;;;;;;;;;;;;;;5139475;27;20398;-86
2021/12/08 03:56:30;;;;;;;;;;;;;;;;;;5138673;27;20047;-85
2021/12/08 03:58:57;;;;;;;;;;;;;;;;;;5137946;27;20018;-85
2021/12/08 04:01:24;;;;;;;;;;;;;;;;;;5138206;27;20036;-86
2021/12/08 04:03:51;;;;;;;;;;;;;;;;;;5137909;27;20038;-85
2021/12/08 04:06:29;;;;;;;;;;;;;;;;;;5137955;27;20377;-85
2021/12/08 04:08:56;;;;;;;;;;;;;;;;;;5138054;27;19942;-85
2021/12/08 04:11:23;;;;;;;;;;;;;;;;;;5137931;27;19927;-84
2021/12/08 04:13:50;;;;;;;;;;;;;;;;;;5137844;27;20026;-85
2021/12/08 04:16:17;;;;;;;;;;;;;;;;;;5137705;27;19930;-85
2021/12/08 04:18:44;;;;;;;;;;;;;;;;;;5137570;27;20034;-85
2021/12/08 04:21:11;;;;;;;;;;;;;;;;;;5137871;27;20044;-85
2021/12/08 04:23:39;;;;;;;;;;;;;;;;;;5137616;27;20026;-85
2021/12/08 04:26:06;;;;;;;;;;;;;;;;;;5137520;27;20267;-85
2021/12/08 04:28:34;;;;;;;;;;;;;;;;;;5137649;27;20022;-85
2021/12/08 04:31:01;;;;;;;;;;;;;;;;;;5137448;27;19952;-85
2021/12/08 04:33:28;;;;;;;;;;;;;;;;;;5137368;27;20362;-85
2021/12/08 04:35:55;;;;;;;;;;;;;;;;;;5137470;27;19974;-85
2021/12/08 04:38:24;;;;;;;;;;;;;;;;;;5136026;27;19989;-85
2021/12/08 04:41:00;;;;;;;;;;;;;;;;;;5137027;27;19930;-85
2021/12/08 04:43:32;;;;;;;;;;;;;;;;;;5137193;27;20259;-85
2021/12/08 04:46:06;;;;;;;;;;;;;;;;;;5137188;27;19944;-85
2021/12/08 04:48:49;;;;;;;;;;;;;;;;;;5137391;27;19924;-84
2021/12/08 05:00:14;;;;;;;;;;;;;;;;;;5135049;27;19944;-84
2021/12/08 05:02:39;;;;;;;;;;;;;;;;;;5136874;27;19929;-85
2021/12/08 05:05:18;;;;;;;;;;;;;;;;;;5136802;27;20040;-85
2021/12/08 05:07:53;;;;;;;;;;;;;;;;;;5136798;27;19968;-86
2021/12/08 05:10:20;;;;;;;;;;;;;;;;;;5136576;27;19941;-85
2021/12/08 05:12:47;;;;;;;;;;;;;;;;;;5136454;27;20364;-85
2021/12/08 05:15:15;;;;;;;;;;;;;;;;;;5136635;27;20006;-86
2021/12/08 05:17:42;;;;;;;;;;;;;;;;;;5136246;27;19931;-85
2021/12/08 05:20:09;;;;;;;;;;;;;;;;;;5136947;27;20007;-85
2021/12/08 05:22:36;;;;;;;;;;;;;;;;;;5139663;27;19998;-86
2021/12/08 05:25:03;;;;;;;;;;;;;;;;;;5137333;27;19981;-86
2021/12/08 05:27:30;;;;;;;;;;;;;;;;;;5136261;27;19936;-86
2021/12/08 05:29:57;;;;;;;;;;;;;;;;;;5136473;27;19998;-86
2021/12/08 05:32:24;;;;;;;;;;;;;;;;;;5137036;27;20045;-85
2021/12/08 05:34:51;;;;;;;;;;;;;;;;;;5136596;27;20033;-85
2021/12/08 05:37:18;;;;;;;;;;;;;;;;;;5137477;27;20014;-85
2021/12/08 05:39:45;;;;;;;;;;;;;;;;;;5135968;27;19977;-86
2021/12/08 05:42:12;;;;;;;;;;;;;;;;;;5136379;27;20024;-85
2021/12/08 05:44:39;;;;;;;;;;;;;;;;;;5135965;27;20355;-86
2021/12/08 05:47:05;;;;;;;;;;;;;;;;;;5135965;27;20033;-85
2021/12/08 05:49:32;;;;;;;;;;;;;;;;;;5135560;27;20036;-85
2021/12/08 05:51:59;;;;;;;;;;;;;;;;;;5136188;27;20380;-85
2021/12/08 05:54:29;;;;;;;;;;;;;;;;;;5135787;27;19963;-85
2021/12/08 05:56:56;;;;;;;;;;;;;;;;;;5135965;27;20324;-85
2021/12/08 05:59:23;;;;;;;;;;;;;;;;;;5135739;27;19923;-85
2021/12/08 06:01:51;;;;;;;;;;;;;;;;;;5135696;27;20001;-86
2021/12/08 06:04:18;;;;;;;;;;;;;;;;;;5135658;27;19930;-85
2021/12/08 06:06:47;;;;;;;;;;;;;;;;;;5135490;27;19966;-85
2021/12/08 06:09:14;;;;;;;;;;;;;;;;;;5135446;27;19927;-85
2021/12/08 06:11:41;;;;;;;;;;;;;;;;;;5135466;27;20037;-85
2021/12/08 06:14:08;;;;;;;;;;;;;;;;;;5135789;27;19982;-86
2021/12/08 06:16:35;;;;;;;;;;;;;;;;;;5135432;27;19963;-85
2021/12/08 06:19:02;;;;;;;;;;;;;;;;;;5135297;27;19966;-85
2021/12/08 06:21:29;;;;;;;;;;;;;;;;;;5135373;27;19988;-85
2021/12/08 06:23:56;;;;;;;;;;;;;;;;;;5135747;27;20363;-86
2021/12/08 06:26:23;;;;;;;;;;;;;;;;;;5136368;27;20010;-86
2021/12/08 06:28:50;;;;;;;;;;;;;;;;;;5134520;27;20441;-85
2021/12/08 06:31:17;;;;;;;;;;;;;;;;;;5134674;27;20006;-86
2021/12/08 06:33:44;;;;;;;;;;;;;;;;;;5134647;27;20044;-86
2021/12/08 06:36:11;;;;;;;;;;;;;;;;;;5134764;27;19955;-86
2021/12/08 06:38:38;;;;;;;;;;;;;;;;;;5134774;27;19923;-86
2021/12/08 06:41:05;;;;;;;;;;;;;;;;;;5134390;27;20363;-86
2021/12/08 06:43:32;;;;;;;;;;;;;;;;;;5135612;27;20010;-86
2021/12/08 06:45:59;;;;;;;;;;;;;;;;;;5134851;27;20024;-86
2021/12/08 06:48:26;;;;;;;;;;;;;;;;;;5132546;27;20010;-85
2021/12/08 06:50:53;;;;;;;;;;;;;;;;;;5134779;27;20040;-85
2021/12/08 06:53:20;;;;;;;;;;;;;;;;;;5134666;27;20345;-86
2021/12/08 06:55:49;;;;;;;;;;;;;;;;;;5134080;27;19984;-85
2021/12/08 06:58:19;;;;;;;;;;;;;;;;;;5134094;27;19946;-85
2021/12/08 07:00:51;;;;;;;;;;;;;;;;;;5133702;27;19924;-86
2021/12/08 07:03:31;;;;;;;;;;;;;;;;;;5134513;27;19982;-85
2021/12/08 07:06:07;;;;;;;;;;;;;;;;;;5134493;27;20411;-85
2021/12/08 07:08:34;;;;;;;;;;;;;;;;;;5134342;27;20035;-85
2021/12/08 07:11:01;;;;;;;;;;;;;;;;;;5134552;27;19924;-86
2021/12/08 07:13:28;;;;;;;;;;;;;;;;;;5134362;27;19995;-85
2021/12/08 07:15:55;;;;;;;;;;;;;;;;;;5135037;28;19961;-85
2021/12/08 07:18:24;;;;;;;;;;;;;;;;;;5134301;28;19942;-85
2021/12/08 07:20:51;;;;;;;;;;;;;;;;;;5134490;27;20021;-85
2021/12/08 07:23:18;;;;;;;;;;;;;;;;;;5134440;28;19968;-86
2021/12/08 07:25:45;;;;;;;;;;;;;;;;;;5134400;27;19988;-85
2021/12/08 07:28:12;;;;;;;;;;;;;;;;;;5134157;28;20011;-86
2021/12/08 07:30:39;;;;;;;;;;;;;;;;;;5134228;27;19970;-85
2021/12/08 07:33:06;;;;;;;;;;;;;;;;;;5134355;27;20279;-86
2021/12/08 07:35:34;;;;;;;;;;;;;;;;;;5134189;28;19963;-86
2021/12/08 07:38:01;;;;;;;;;;;;;;;;;;5134164;28;19930;-85
2021/12/08 07:40:28;;;;;;;;;;;;;;;;;;5133703;27;19976;-85
2021/12/08 07:42:55;;;;;;;;;;;;;;;;;;5134481;28;19977;-85
2021/12/08 07:45:22;;;;;;;;;;;;;;;;;;5133749;27;19997;-85
2021/12/08 07:47:49;;;;;;;;;;;;;;;;;;5133769;28;19979;-86
2021/12/08 07:50:16;;;;;;;;;;;;;;;;;;5133035;27;20010;-85
2021/12/08 07:52:43;;;;;;;;;;;;;;;;;;5133085;28;19967;-84
2021/12/08 07:55:10;;;;;;;;;;;;;;;;;;5133768;27;19987;-85
2021/12/08 07:57:37;;;;;;;;;;;;;;;;;;5133471;27;20387;-85
2021/12/08 08:00:04;;;;;;;;;;;;;;;;;;5133686;27;19953;-85
2021/12/08 08:02:31;;;;;;;;;;;;;;;;;;5133843;27;20007;-85
2021/12/08 08:04:58;;;;;;;;;;;;;;;;;;5133533;27;20353;-84
2021/12/08 08:07:26;;;;;;;;;;;;;;;;;;5133231;28;19967;-85
2021/12/08 08:09:59;;;;;;;;;;;;;;;;;;5132929;27;19981;-85
2021/12/08 08:12:27;;;;;;;;;;;;;;;;;;5134846;27;20427;-85
2021/12/08 08:14:56;;;;;;;;;;;;;;;;;;5137240;27;20571;-84
2021/12/08 08:17:27;;;;;;;;;;;;;;;;;;5137447;27;20378;-84
2021/12/08 08:19:54;;;;;;;;;;;;;;;;;;5136723;27;19924;-85
2021/12/08 08:22:21;;;;;;;;;;;;;;;;;;5137365;27;20469;-84
2021/12/08 08:24:48;;;;;;;;;;;;;;;;;;5137621;27;19992;-84
2021/12/08 08:27:15;;;;;;;;;;;;;;;;;;5136995;27;20006;-85
2021/12/08 08:29:42;;;;;;;;;;;;;;;;;;5134197;27;20361;-84
2021/12/08 08:32:09;;;;;;;;;;;;;;;;;;5137197;27;20025;-84
2021/12/08 08:34:38;;;;;;;;;;;;;;;;;;5137309;27;20044;-85
2021/12/08 08:37:05;;;;;;;;;;;;;;;;;;5137171;27;20432;-85
2021/12/08 08:39:35;;;;;;;;;;;;;;;;;;5136845;27;19924;-84
2021/12/08 08:42:02;;;;;;;;;;;;;;;;;;5136817;27;20025;-85
2021/12/08 08:44:29;;;;;;;;;;;;;;;;;;5136545;27;19923;-85
2021/12/08 08:46:56;;;;;;;;;;;;;;;;;;5136761;27;20018;-85
2021/12/08 08:49:23;;;;;;;;;;;;;;;;;;5136364;27;20010;-86
2021/12/08 08:51:50;;;;;;;;;;;;;;;;;;5136300;27;20028;-84
2021/12/08 08:54:20;;;;;;;;;;;;;;;;;;5136375;27;20021;-85
2021/12/08 08:56:47;;;;;;;;;;;;;;;;;;5136894;27;19969;-85
2021/12/08 08:59:14;;;;;;;;;;;;;;;;;;5136838;27;20031;-86
2021/12/08 09:01:40;;;;;;;;;;;;;;;;;;5136593;27;20052;-85
2021/12/08 09:04:07;;;;;;;;;;;;;;;;;;5136574;27;20065;-85
2021/12/08 09:06:34;;;;;;;;;;;;;;;;;;5136715;27;20006;-85
2021/12/08 09:09:02;;;;;;;;;;;;;;;;;;5136765;27;20048;-85
2021/12/08 09:11:29;;;;;;;;;;;;;;;;;;5136427;27;20004;-85
2021/12/08 09:13:59;;;;;;;;;;;;;;;;;;5136593;27;20036;-85
2021/12/08 09:16:26;;;;;;;;;;;;;;;;;;5135663;27;20442;-84
2021/12/08 09:18:59;;;;;;;;;;;;;;;;;;5135590;27;19929;-83
2021/12/08 09:21:26;;;;;;;;;;;;;;;;;;5135873;27;19991;-84
2021/12/08 09:23:55;;;;;;;;;;;;;;;;;;5135839;27;19970;-84
2021/12/08 09:26:22;;;;;;;;;;;;;;;;;;5136232;27;20432;-85
2021/12/08 09:28:49;;;;;;;;;;;;;;;;;;5135911;27;19963;-85
2021/12/08 09:31:18;;;;;;;;;;;;;;;;;;5136208;27;20107;-85
2021/12/08 09:33:45;;;;;;;;;;;;;;;;;;5136396;27;19943;-85
2021/12/08 09:36:13;;;;;;;;;;;;;;;;;;5135931;27;19982;-85
2021/12/08 09:38:40;;;;;;;;;;;;;;;;;;5136172;27;20037;-85
2021/12/08 09:41:07;;;;;;;;;;;;;;;;;;5134964;27;20044;-85
2021/12/08 09:43:34;;;;;;;;;;;;;;;;;;5135484;27;20472;-86
2021/12/08 09:46:01;;;;;;;;;;;;;;;;;;5136164;27;20011;-86
2021/12/08 09:48:29;;;;;;;;;;;;;;;;;;5135530;27;19962;-85
2021/12/08 09:50:56;;;;;;;;;;;;;;;;;;5135511;27;19957;-85
2021/12/08 09:53:23;;;;;;;;;;;;;;;;;;5135856;27;20005;-83
2021/12/08 09:55:50;;;;;;;;;;;;;;;;;;5135437;27;20029;-84
2021/12/08 09:58:17;;;;;;;;;;;;;;;;;;5135126;27;19970;-83
2021/12/08 10:00:44;;;;;;;;;;;;;;;;;;5135188;27;20392;-84
2021/12/08 10:03:13;;;;;;;;;;;;;;;;;;5135168;27;19982;-84
2021/12/08 10:05:41;;;;;;;;;;;;;;;;;;5134629;27;19944;-84
2021/12/08 10:08:08;;;;;;;;;;;;;;;;;;5134846;27;19946;-84
2021/12/08 10:10:35;;;;;;;;;;;;;;;;;;5132172;27;20012;-82
2021/12/08 10:13:02;;;;;;;;;;;;;;;;;;5134854;27;20024;-85
2021/12/08 10:15:29;;;;;;;;;;;;;;;;;;5134920;27;20365;-84
2021/12/08 10:17:56;;;;;;;;;;;;;;;;;;5134718;27;20014;-84
2021/12/08 10:20:23;;;;;;;;;;;;;;;;;;5134898;27;19958;-83
2021/12/08 10:22:50;;;;;;;;;;;;;;;;;;5134641;27;20026;-84
2021/12/08 10:25:17;;;;;;;;;;;;;;;;;;5134657;27;20033;-84
2021/12/08 10:27:44;;;;;;;;;;;;;;;;;;5135221;27;20051;-83
2021/12/08 10:30:11;;;;;;;;;;;;;;;;;;5134654;27;20034;-84
2021/12/08 10:32:38;;;;;;;;;;;;;;;;;;5134928;27;20044;-83
2021/12/08 10:35:07;;;;;;;;;;;;;;;;;;5134043;27;19995;-84
2021/12/08 10:37:34;;;;;;;;;;;;;;;;;;5134479;27;20362;-84
2021/12/08 10:40:01;;;;;;;;;;;;;;;;;;5134797;27;20025;-83
2021/12/08 10:42:28;;;;;;;;;;;;;;;;;;5134980;27;20039;-84
2021/12/08 10:44:57;;;;;;;;;;;;;;;;;;5134803;27;19963;-83
2021/12/08 10:47:24;;;;;;;;;;;;;;;;;;5134519;27;20450;-83
2021/12/08 10:55:20;;;;;;;;;;;;;;;;;;5134616;27;19961;-83
2021/12/08 10:57:47;;;;;;;;;;;;;;;;;;5134727;27;20039;-83
2021/12/08 11:00:14;;;;;;;;;;;;;;;;;;5134511;27;20018;-83
2021/12/08 11:02:41;;;;;;;;;;;;;;;;;;5133922;27;20027;-83
2021/12/08 11:05:08;;;;;;;;;;;;;;;;;;5134432;27;20037;-84
2021/12/08 11:07:35;;;;;;;;;;;;;;;;;;5134432;27;20041;-85
2021/12/08 11:10:02;;;;;;;;;;;;;;;;;;5134165;27;20023;-85
2021/12/08 11:12:29;;;;;;;;;;;;;;;;;;5133750;27;20345;-84
2021/12/08 11:14:59;;;;;;;;;;;;;;;;;;5134135;27;20377;-83
2021/12/08 11:17:26;;;;;;;;;;;;;;;;;;5134669;27;19923;-83
2021/12/08 11:19:53;;;;;;;;;;;;;;;;;;5134560;27;19924;-84
2021/12/08 11:22:21;;;;;;;;;;;;;;;;;;5134165;27;20326;-85
2021/12/08 11:24:56;;;;;;;;;;;;;;;;;;5134354;27;19927;-84
2021/12/08 11:27:23;;;;;;;;;;;;;;;;;;5134102;27;20431;-85
2021/12/08 11:29:50;;;;;;;;;;;;;;;;;;5133974;27;20028;-86
2021/12/08 11:32:22;;;;;;;;;;;;;;;;;;5134054;27;19973;-84
2021/12/08 11:34:51;;;;;;;;;;;;;;;;;;5134070;28;19985;-84
2021/12/08 11:37:18;;;;;;;;;;;;;;;;;;5133699;28;19931;-84
2021/12/08 11:39:45;;;;;;;;;;;;;;;;;;5133918;28;20002;-84
2021/12/08 11:42:12;;;;;;;;;;;;;;;;;;5134194;28;20052;-85
2021/12/08 11:44:39;;;;;;;;;;;;;;;;;;5134200;28;20341;-84
2021/12/08 11:47:06;;;;;;;;;;;;;;;;;;5135314;27;20002;-84
2021/12/08 11:49:33;;;;;;;;;;;;;;;;;;5137617;27;19974;-85
2021/12/08 11:52:00;;;;;;;;;;;;;;;;;;5137614;27;20355;-84
2021/12/08 11:54:27;;;;;;;;;;;;;;;;;;5137818;27;19977;-85
2021/12/08 11:56:54;;;;;;;;;;;;;;;;;;5137804;27;20030;-84
2021/12/08 11:59:21;;;;;;;;;;;;;;;;;;5137456;27;20451;-81
2021/12/08 12:01:48;;;;;;;;;;;;;;;;;;5137755;27;19971;-83
2021/12/08 12:04:15;;;;;;;;;;;;;;;;;;5137793;27;19945;-85
2021/12/08 12:06:42;;;;;;;;;;;;;;;;;;5137824;27;19998;-82
2021/12/08 12:09:10;;;;;;;;;;;;;;;;;;5137493;27;20038;-84
2021/12/08 12:11:37;;;;;;;;;;;;;;;;;;5134787;27;19942;-84
2021/12/08 12:14:04;;;;;;;;;;;;;;;;;;5137064;27;20039;-84
2021/12/08 12:16:31;;;;;;;;;;;;;;;;;;5137150;27;20467;-81
2021/12/08 12:18:59;;;;;;;;;;;;;;;;;;5134463;27;20009;-81
2021/12/08 12:21:26;;;;;;;;;;;;;;;;;;5136976;27;19993;-82
2021/12/08 12:23:53;;;;;;;;;;;;;;;;;;5137162;27;20002;-82
2021/12/08 12:26:21;;;;;;;;;;;;;;;;;;5137399;27;20034;-82
2021/12/08 12:28:48;;;;;;;;;;;;;;;;;;5137433;27;20367;-82
2021/12/08 12:31:19;;;;;;;;;;;;;;;;;;5137624;27;20020;-83
2021/12/08 12:33:46;;;;;;;;;;;;;;;;;;5137827;27;19994;-83
2021/12/08 12:36:13;;;;;;;;;;;;;;;;;;5137190;27;20018;-83
2021/12/08 12:38:40;;;;;;;;;;;;;;;;;;5137068;27;20014;-84
2021/12/08 12:41:07;;;;;;;;;;;;;;;;;;5136785;27;20289;-85
2021/12/08 12:43:37;;;;;;;;;;;;;;;;;;5136388;27;20286;-83
2021/12/08 12:46:04;;;;;;;;;;;;;;;;;;5137166;27;19989;-82
2021/12/08 12:48:31;;;;;;;;;;;;;;;;;;5137007;27;20041;-84
2021/12/08 12:50:58;;;;;;;;;;;;;;;;;;5136707;27;19958;-85
2021/12/08 12:53:25;;;;;;;;;;;;;;;;;;5136471;27;20376;-84
2021/12/08 12:55:52;;;;;;;;;;;;;;;;;;5136929;27;20028;-86
2021/12/08 12:58:19;;;;;;;;;;;;;;;;;;5135825;27;19959;-83
2021/12/08 13:00:46;;;;;;;;;;;;;;;;;;5136628;27;20477;-83
2021/12/08 13:03:13;;;;;;;;;;;;;;;;;;5136598;27;19991;-83
2021/12/08 13:05:40;;;;;;;;;;;;;;;;;;5136594;27;19994;-83
2021/12/08 13:08:07;;;;;;;;;;;;;;;;;;5136640;27;20042;-83
2021/12/08 13:10:35;;;;;;;;;;;;;;;;;;5136449;27;20377;-83
2021/12/08 13:13:02;;;;;;;;;;;;;;;;;;5136536;27;19978;-83
2021/12/08 13:15:29;;;;;;;;;;;;;;;;;;5136501;27;20041;-83
2021/12/08 13:17:56;;;;;;;;;;;;;;;;;;5136447;27;20025;-83
2021/12/08 13:20:23;;;;;;;;;;;;;;;;;;5136350;27;20403;-83
2021/12/08 13:22:51;;;;;;;;;;;;;;;;;;5136365;27;20034;-83
2021/12/08 13:25:18;;;;;;;;;;;;;;;;;;5136307;27;19954;-83
2021/12/08 13:27:45;;;;;;;;;;;;;;;;;;5136362;27;20054;-83
2021/12/08 13:30:14;;;;;;;;;;;;;;;;;;5136057;27;20012;-83
2021/12/08 13:32:46;;;;;;;;;;;;;;;;;;5136069;27;19951;-83
2021/12/08 13:35:13;;;;;;;;;;;;;;;;;;5136081;27;20007;-83
2021/12/08 13:37:40;;;;;;;;;;;;;;;;;;5135777;27;20478;-84
2021/12/08 13:40:07;;;;;;;;;;;;;;;;;;5132587;27;20024;-83
2021/12/08 13:42:36;;;;;;;;;;;;;;;;;;5135380;27;20041;-83
2021/12/08 13:45:03;;;;;;;;;;;;;;;;;;5135294;27;19950;-83
2021/12/08 13:47:30;;;;;;;;;;;;;;;;;;5135406;27;20042;-83
2021/12/08 13:49:57;;;;;;;;;;;;;;;;;;5135712;27;20479;-83
2021/12/08 13:52:24;;;;;;;;;;;;;;;;;;5135871;27;19954;-83
2021/12/08 13:54:51;;;;;;;;;;;;;;;;;;5136002;27;20055;-83
2021/12/08 13:57:18;;;;;;;;;;;;;;;;;;5135622;27;20055;-83
2021/12/08 13:59:45;;;;;;;;;;;;;;;;;;5135183;27;20041;-83
2021/12/08 14:02:12;;;;;;;;;;;;;;;;;;5135408;27;20326;-83
2021/12/08 14:04:39;;;;;;;;;;;;;;;;;;5135492;27;20388;-82
2021/12/08 14:07:06;;;;;;;;;;;;;;;;;;5135431;27;20061;-83
2021/12/08 14:09:33;;;;;;;;;;;;;;;;;;5135417;27;20047;-85
2021/12/08 14:12:00;;;;;;;;;;;;;;;;;;5135057;27;20047;-84
2021/12/08 14:14:27;;;;;;;;;;;;;;;;;;5135269;27;19993;-85
2021/12/08 14:16:54;;;;;;;;;;;;;;;;;;5135275;27;20351;-85
2021/12/08 14:19:21;;;;;;;;;;;;;;;;;;5135405;27;20038;-84
2021/12/08 14:21:48;;;;;;;;;;;;;;;;;;5134874;27;20067;-86
2021/12/08 14:24:15;;;;;;;;;;;;;;;;;;5134786;27;20061;-85
2021/12/08 14:26:44;;;;;;;;;;;;;;;;;;5132417;27;20040;-85
2021/12/08 14:29:13;;;;;;;;;;;;;;;;;;5135319;27;20078;-86
2021/12/08 14:31:40;;;;;;;;;;;;;;;;;;5135305;27;20345;-85
2021/12/08 14:34:07;;;;;;;;;;;;;;;;;;5135071;27;20051;-85
2021/12/08 14:36:34;;;;;;;;;;;;;;;;;;5134846;27;19959;-85
2021/12/08 14:39:01;;;;;;;;;;;;;;;;;;5134697;27;19995;-85
2021/12/08 14:41:28;;;;;;;;;;;;;;;;;;5134710;27;19978;-85
2021/12/08 14:43:55;;;;;;;;;;;;;;;;;;5134894;27;20018;-85
2021/12/08 14:46:24;;;;;;;;;;;;;;;;;;5134759;27;19996;-85
2021/12/08 14:48:51;;;;;;;;;;;;;;;;;;5134685;27;20437;-85
2021/12/08 14:51:18;;;;;;;;;;;;;;;;;;5134719;27;20019;-85
2021/12/08 14:53:45;;;;;;;;;;;;;;;;;;5134565;27;20057;-85
2021/12/08 14:56:12;;;;;;;;;;;;;;;;;;5134687;27;19993;-85
2021/12/08 14:58:39;;;;;;;;;;;;;;;;;;5134271;27;20432;-85
2021/12/08 15:01:06;;;;;;;;;;;;;;;;;;5134398;27;20073;-85
2021/12/08 15:03:33;;;;;;;;;;;;;;;;;;5134738;27;20043;-85
2021/12/08 15:06:00;;;;;;;;;;;;;;;;;;5133737;27;20047;-86
2021/12/08 15:08:27;;;;;;;;;;;;;;;;;;5134641;27;19957;-85
2021/12/08 15:10:54;;;;;;;;;;;;;;;;;;5134443;27;20477;-85
2021/12/08 15:13:24;;;;;;;;;;;;;;;;;;5134460;27;19967;-85
2021/12/08 15:15:56;;;;;;;;;;;;;;;;;;5134703;27;19999;-85
2021/12/08 15:18:24;;;;;;;;;;;;;;;;;;5134407;27;19960;-86
2021/12/08 15:20:58;;;;;;;;;;;;;;;;;;5134260;27;20343;-85
2021/12/08 15:23:37;;;;;;;;;;;;;;;;;;5138472;27;20052;-85
2021/12/08 15:26:04;;;;;;;;;;;;;;;;;;5138676;27;20440;-85
2021/12/08 15:28:32;;;;;;;;;;;;;;;;;;5138663;27;20050;-86
2021/12/08 15:30:59;;;;;;;;;;;;;;;;;;5138634;27;20049;-85
2021/12/08 15:33:26;;;;;;;;;;;;;;;;;;5138419;27;19964;-85
2021/12/08 15:35:53;;;;;;;;;;;;;;;;;;5138385;27;19956;-85
2021/12/08 15:38:20;;;;;;;;;;;;;;;;;;5138391;27;20037;-86
2021/12/08 15:40:46;;;;;;;;;;;;;;;;;;5138218;27;20075;-85
2021/12/08 15:43:13;;;;;;;;;;;;;;;;;;5138314;27;20050;-85
2021/12/08 15:45:40;;;;;;;;;;;;;;;;;;5138249;27;20041;-84
2021/12/08 15:48:07;;;;;;;;;;;;;;;;;;5137212;27;19956;-83
2021/12/08 15:50:36;;;;;;;;;;;;;;;;;;5137735;27;20033;-84
2021/12/08 15:53:03;;;;;;;;;;;;;;;;;;5137742;27;19949;-83
2021/12/08 15:55:30;;;;;;;;;;;;;;;;;;5137893;27;20029;-83
2021/12/08 15:57:57;;;;;;;;;;;;;;;;;;5137880;27;20050;-83
2021/12/08 16:00:24;;;;;;;;;;;;;;;;;;5137778;27;19960;-83
2021/12/08 16:02:51;;;;;;;;;;;;;;;;;;5137960;27;20414;-83
2021/12/08 16:05:18;;;;;;;;;;;;;;;;;;5137817;27;20057;-83
2021/12/08 16:07:45;;;;;;;;;;;;;;;;;;5137825;27;20045;-82
2021/12/08 16:10:12;;;;;;;;;;;;;;;;;;5137593;27;20004;-84
2021/12/08 16:12:39;;;;;;;;;;;;;;;;;;5136926;27;20417;-85
2021/12/08 16:15:06;;;;;;;;;;;;;;;;;;5137886;27;20049;-85
2021/12/08 16:17:33;;;;;;;;;;;;;;;;;;5137640;27;20059;-85
2021/12/08 16:20:00;;;;;;;;;;;;;;;;;;5137098;27;19948;-85
2021/12/08 16:22:27;;;;;;;;;;;;;;;;;;5137127;27;20389;-85
2021/12/08 16:24:54;;;;;;;;;;;;;;;;;;5137363;27;20051;-85
2021/12/08 16:27:21;;;;;;;;;;;;;;;;;;5137191;27;20047;-85
2021/12/08 16:29:48;;;;;;;;;;;;;;;;;;5136920;27;20046;-85
2021/12/08 16:32:16;;;;;;;;;;;;;;;;;;5137456;27;19954;-85
2021/12/08 16:34:43;;;;;;;;;;;;;;;;;;5137259;27;19960;-86
2021/12/08 16:37:10;;;;;;;;;;;;;;;;;;5136684;27;19987;-85
2021/12/08 16:39:44;;;;;;;;;;;;;;;;;;5136595;27;20398;-85
2021/12/08 16:44:55;;;;;;;;;;;;;;;;;;5137268;27;19946;-85
2021/12/08 16:47:22;;;;;;;;;;;;;;;;;;5137132;27;20049;-85
2021/12/08 16:49:49;;;;;;;;;;;;;;;;;;5137290;27;20062;-85
2021/12/08 16:52:16;;;;;;;;;;;;;;;;;;5137274;27;20003;-85
2021/12/08 16:54:46;;;;;;;;;;;;;;;;;;5136952;27;20016;-85
2021/12/08 16:57:13;;;;;;;;;;;;;;;;;;5137227;27;19959;-85
2021/12/08 16:59:40;;;;;;;;;;;;;;;;;;5136851;27;20046;-85
2021/12/08 17:02:07;;;;;;;;;;;;;;;;;;5136752;27;20015;-85
2021/12/08 17:04:34;;;;;;;;;;;;;;;;;;5137038;27;20105;-85
2021/12/08 17:07:02;;;;;;;;;;;;;;;;;;5136611;27;19998;-85
2021/12/08 17:09:29;;;;;;;;;;;;;;;;;;5136665;27;19967;-82
2021/12/08 17:11:57;;;;;;;;;;;;;;;;;;5136850;27;20384;-82
2021/12/08 17:14:24;;;;;;;;;;;;;;;;;;5136867;27;20009;-83
2021/12/08 17:16:51;;;;;;;;;;;;;;;;;;5136450;27;20050;-82
2021/12/08 17:19:18;;;;;;;;;;;;;;;;;;5136311;27;20045;-83
2021/12/08 17:21:45;;;;;;;;;;;;;;;;;;5136416;27;20056;-82